Time;durP1;ratioP1;P1;durP2;ratioP2;P2;SDS_P1;SDS_P2;PMS_P1;PMS_P2;Temp;Humidity;BMP_temperature;BMP_pressure;BME280_temperature;BME280_humidity;BME280_pressure;Samples;Min_cycle;Max_cycle;Signal;HPM_P1;HPM_P2
2023/07/21 00:02:22;;;;;;;14.93;13.40;;;;;;;;;;5090438;28;20145;-63
2023/07/21 00:04:47;;;;;;;15.25;13.25;;;;;;;;;;5090362;28;20040;-63
2023/07/21 00:07:12;;;;;;;14.57;13.18;;;;;;;;;;5104161;28;20094;-63
2023/07/21 00:09:37;;;;;;;15.33;13.70;;;;;;;;;;5090921;28;20327;-64
2023/07/21 00:12:03;;;;;;;14.33;13.03;;;;;;;;;;5091231;28;20284;-63
2023/07/21 00:14:29;;;;;;;16.13;13.00;;;;;;;;;;5091493;28;20297;-63
2023/07/21 00:16:54;;;;;;;17.98;13.10;;;;;;;;;;5093031;28;20069;-64
2023/07/21 00:19:19;;;;;;;15.23;13.63;;;;;;;;;;5112530;28;20088;-64
2023/07/21 00:21:45;;;;;;;14.55;13.10;;;;;;;;;;5098185;28;20344;-64
2023/07/21 00:24:11;;;;;;;15.07;13.52;;;;;;;;;;5103275;28;20022;-64
2023/07/21 00:26:36;;;;;;;16.23;12.82;;;;;;;;;;5109555;28;20580;-63
2023/07/21 00:29:01;;;;;;;19.90;14.18;;;;;;;;;;5103835;28;20019;-63
2023/07/21 00:31:27;;;;;;;17.60;15.80;;;;;;;;;;5111614;28;20356;-63
2023/07/21 00:33:53;;;;;;;15.95;14.20;;;;;;;;;;5111740;28;20270;-64
2023/07/21 00:36:18;;;;;;;16.02;13.82;;;;;;;;;;5094259;28;20379;-63
2023/07/21 00:38:46;;;;;;;15.07;13.43;;;;;;;;;;5113945;28;20023;-63
2023/07/21 00:41:12;;;;;;;16.83;14.65;;;;;;;;;;5114531;28;20309;-63
2023/07/21 00:43:37;;;;;;;17.60;14.32;;;;;;;;;;5113884;28;20401;-63
2023/07/21 00:46:02;;;;;;;16.20;14.60;;;;;;;;;;5114070;28;20390;-63
2023/07/21 00:48:27;;;;;;;16.27;14.60;;;;;;;;;;5096261;28;20296;-63
2023/07/21 00:50:53;;;;;;;16.63;14.85;;;;;;;;;;5094890;28;20039;-63
2023/07/21 00:53:19;;;;;;;16.58;14.57;;;;;;;;;;5097147;28;20370;-63
2023/07/21 00:55:47;;;;;;;17.83;14.85;;;;;;;;;;5093933;28;20027;-63
2023/07/21 00:58:13;;;;;;;18.05;15.40;;;;;;;;;;5107456;28;20035;-63
2023/07/21 01:00:41;;;;;;;17.08;15.38;;;;;;;;;;5111450;28;20028;-63
2023/07/21 01:03:08;;;;;;;20.35;18.25;;;;;;;;;;5103147;28;20031;-63
2023/07/21 01:05:35;;;;;;;20.88;18.65;;;;;;;;;;5111249;28;20019;-63
2023/07/21 01:08:01;;;;;;;21.52;19.35;;;;;;;;;;5095019;28;20476;-63
2023/07/21 01:10:28;;;;;;;21.48;19.52;;;;;;;;;;5095479;28;20027;-63
2023/07/21 01:12:53;;;;;;;22.15;19.98;;;;;;;;;;5094420;28;20031;-63
2023/07/21 01:15:18;;;;;;;21.52;19.50;;;;;;;;;;5095119;28;20023;-63
2023/07/21 01:17:44;;;;;;;22.40;20.17;;;;;;;;;;5103690;28;20032;-63
2023/07/21 01:20:14;;;;;;;21.92;19.90;;;;;;;;;;5099283;28;20028;-63
2023/07/21 01:22:50;;;;;;;22.20;19.13;;;;;;;;;;5103865;28;20028;-63
2023/07/21 01:25:17;;;;;;;26.63;19.30;;;;;;;;;;5111975;28;20019;-63
2023/07/21 01:27:43;;;;;;;21.10;18.92;;;;;;;;;;5113180;28;20374;-63
2023/07/21 01:30:13;;;;;;;20.35;17.83;;;;;;;;;;5095391;28;20363;-63
2023/07/21 01:32:40;;;;;;;20.17;18.08;;;;;;;;;;5094906;28;20043;-63
2023/07/21 01:35:08;;;;;;;20.98;18.88;;;;;;;;;;5099280;28;20015;-63
2023/07/21 01:37:34;;;;;;;19.90;18.00;;;;;;;;;;5101975;28;20031;-62
2023/07/21 01:39:59;;;;;;;21.90;19.70;;;;;;;;;;5097786;28;20024;-63
2023/07/21 01:42:29;;;;;;;21.92;19.73;;;;;;;;;;5106662;28;20038;-63
2023/07/21 01:44:54;;;;;;;22.15;19.30;;;;;;;;;;5092921;28;20422;-63
2023/07/21 01:47:21;;;;;;;21.67;19.42;;;;;;;;;;5102914;28;20028;-63
2023/07/21 01:49:46;;;;;;;20.40;18.35;;;;;;;;;;5105433;28;20123;-63
2023/07/21 01:52:14;;;;;;;20.83;18.80;;;;;;;;;;5092007;28;20138;-64
2023/07/21 01:54:45;;;;;;;22.50;20.30;;;;;;;;;;5102274;28;20027;-63
2023/07/21 01:57:13;;;;;;;20.70;18.83;;;;;;;;;;5111672;28;20070;-63
2023/07/21 01:59:41;;;;;;;24.63;20.80;;;;;;;;;;5099970;28;20407;-63
2023/07/21 02:02:06;;;;;;;22.30;20.10;;;;;;;;;;5100493;28;20069;-63
2023/07/21 02:04:32;;;;;;;23.65;20.77;;;;;;;;;;5093240;28;20024;-63
2023/07/21 02:06:57;;;;;;;24.80;22.13;;;;;;;;;;5105725;28;20470;-63
2023/07/21 02:09:22;;;;;;;22.27;18.90;;;;;;;;;;5112392;28;20485;-63
2023/07/21 02:11:48;;;;;;;19.88;18.00;;;;;;;;;;5112751;28;20104;-63
2023/07/21 02:14:14;;;;;;;20.80;18.70;;;;;;;;;;5094794;28;20016;-63
2023/07/21 02:16:39;;;;;;;25.33;21.08;;;;;;;;;;5092666;28;20027;-63
2023/07/21 02:19:07;;;;;;;23.63;20.95;;;;;;;;;;5104293;28;20374;-63
2023/07/21 02:21:33;;;;;;;23.15;19.52;;;;;;;;;;5111999;28;20031;-63
2023/07/21 02:23:58;;;;;;;21.38;19.27;;;;;;;;;;5112737;28;20104;-63
2023/07/21 02:26:24;;;;;;;20.83;18.65;;;;;;;;;;5112574;28;20028;-63
2023/07/21 02:28:49;;;;;;;22.00;18.17;;;;;;;;;;5113015;28;20054;-63
2023/07/21 02:31:14;;;;;;;20.73;18.70;;;;;;;;;;5099038;28;20378;-63
2023/07/21 02:33:39;;;;;;;25.08;20.85;;;;;;;;;;5112813;28;20027;-63
2023/07/21 02:36:05;;;;;;;23.20;20.27;;;;;;;;;;5112574;28;20020;-63
2023/07/21 02:38:30;;;;;;;23.17;21.02;;;;;;;;;;5112392;28;20099;-63
2023/07/21 02:41:00;;;;;;;21.35;19.08;;;;;;;;;;5106778;28;20465;-63
2023/07/21 02:43:25;;;;;;;23.75;20.80;;;;;;;;;;5096940;28;20106;-63
2023/07/21 02:45:51;;;;;;;24.08;21.55;;;;;;;;;;5104575;28;20213;-63
2023/07/21 02:48:17;;;;;;;21.40;19.20;;;;;;;;;;5106526;28;20034;-63
2023/07/21 02:50:43;;;;;;;23.00;20.80;;;;;;;;;;5092593;28;20028;-63
2023/07/21 02:53:09;;;;;;;22.23;19.98;;;;;;;;;;5103572;28;20121;-63
2023/07/21 02:55:36;;;;;;;19.83;17.83;;;;;;;;;;5094484;28;20111;-63
2023/07/21 02:58:01;;;;;;;21.55;18.63;;;;;;;;;;5103575;28;20377;-63
2023/07/21 03:00:28;;;;;;;22.73;20.35;;;;;;;;;;5107600;28;20028;-63
2023/07/21 03:02:53;;;;;;;21.00;18.50;;;;;;;;;;5092186;28;20043;-63
2023/07/21 03:05:18;;;;;;;22.10;19.77;;;;;;;;;;5092492;28;20466;-63
2023/07/21 03:07:43;;;;;;;23.23;19.63;;;;;;;;;;5103414;28;20095;-63
2023/07/21 03:10:11;;;;;;;20.90;18.65;;;;;;;;;;5094121;28;20459;-63
2023/07/21 03:12:36;;;;;;;21.15;19.02;;;;;;;;;;5108885;28;20482;-63
2023/07/21 03:15:01;;;;;;;22.73;20.25;;;;;;;;;;5099062;28;20032;-63
2023/07/21 03:17:26;;;;;;;22.98;20.15;;;;;;;;;;5100710;28;20046;-63
2023/07/21 03:19:52;;;;;;;21.80;19.70;;;;;;;;;;5105093;28;20462;-63
2023/07/21 03:22:17;;;;;;;23.88;20.92;;;;;;;;;;5092347;28;20448;-63
2023/07/21 03:24:42;;;;;;;22.47;20.17;;;;;;;;;;5092338;28;20020;-63
2023/07/21 03:27:08;;;;;;;24.38;19.80;;;;;;;;;;5092428;28;20285;-63
2023/07/21 03:29:33;;;;;;;21.83;19.65;;;;;;;;;;5093099;28;20016;-63
2023/07/21 03:31:58;;;;;;;23.48;18.88;;;;;;;;;;5091942;28;20028;-62
2023/07/21 03:34:23;;;;;;;31.97;21.10;;;;;;;;;;5092441;28;20026;-62
2023/07/21 03:36:50;;;;;;;23.92;21.42;;;;;;;;;;5085862;28;20414;-63
2023/07/21 03:39:15;;;;;;;26.42;22.02;;;;;;;;;;5098108;28;20016;-63
2023/07/21 03:41:40;;;;;;;29.73;23.52;;;;;;;;;;5091648;28;20469;-62
2023/07/21 03:44:07;;;;;;;27.20;23.87;;;;;;;;;;5101844;28;20019;-62
2023/07/21 03:46:32;;;;;;;26.75;22.67;;;;;;;;;;5111650;28;20269;-62
2023/07/21 03:48:58;;;;;;;29.35;23.33;;;;;;;;;;5107555;28;20042;-62
2023/07/21 03:51:23;;;;;;;24.63;22.05;;;;;;;;;;5101115;28;20381;-63
2023/07/21 03:53:49;;;;;;;27.27;22.70;;;;;;;;;;5109499;28;20061;-63
2023/07/21 03:56:14;;;;;;;27.77;24.55;;;;;;;;;;5087248;28;20038;-62
2023/07/21 03:58:39;;;;;;;28.13;25.13;;;;;;;;;;5101105;28;20058;-63
2023/07/21 04:01:04;;;;;;;27.35;24.50;;;;;;;;;;5105227;28;20771;-63
2023/07/21 04:03:30;;;;;;;29.55;24.67;;;;;;;;;;5111158;28;20042;-63
2023/07/21 04:05:57;;;;;;;27.33;24.40;;;;;;;;;;5114043;28;20434;-64
2023/07/21 04:08:22;;;;;;;25.42;22.83;;;;;;;;;;5112395;28;20036;-63
2023/07/21 04:10:47;;;;;;;25.60;22.60;;;;;;;;;;5114890;28;20039;-63
2023/07/21 04:13:12;;;;;;;29.30;25.55;;;;;;;;;;5100124;28;20473;-63
2023/07/21 04:15:38;;;;;;;27.02;22.45;;;;;;;;;;5113806;28;20027;-63
2023/07/21 04:18:03;;;;;;;25.90;23.20;;;;;;;;;;5111647;28;20027;-63
2023/07/21 04:20:28;;;;;;;35.38;26.23;;;;;;;;;;5097825;28;20093;-63
2023/07/21 04:22:54;;;;;;;36.78;32.63;;;;;;;;;;5102922;28;20031;-63
2023/07/21 04:25:19;;;;;;;46.05;38.72;;;;;;;;;;5106942;28;20377;-63
2023/07/21 04:27:50;;;;;;;53.57;45.67;;;;;;;;;;5108400;28;20032;-63
2023/07/21 04:30:16;;;;;;;39.00;34.55;;;;;;;;;;5111479;28;20281;-63
2023/07/21 04:32:41;;;;;;;41.78;35.13;;;;;;;;;;5113126;28;20030;-63
2023/07/21 04:35:08;;;;;;;38.80;32.47;;;;;;;;;;5105524;28;20028;-63
2023/07/21 04:37:34;;;;;;;41.63;33.45;;;;;;;;;;5109611;28;20043;-63
2023/07/21 04:39:59;;;;;;;35.90;32.00;;;;;;;;;;5100387;28;20026;-63
2023/07/21 04:42:24;;;;;;;35.57;31.77;;;;;;;;;;5104608;28;20080;-63
2023/07/21 04:44:49;;;;;;;33.37;29.83;;;;;;;;;;5097915;28;20809;-63
2023/07/21 04:47:14;;;;;;;33.13;29.53;;;;;;;;;;5104621;28;20647;-63
2023/07/21 04:49:40;;;;;;;36.90;31.87;;;;;;;;;;5101685;28;20274;-63
2023/07/21 04:52:05;;;;;;;34.40;28.88;;;;;;;;;;5107091;28;20482;-63
2023/07/21 04:54:31;;;;;;;33.08;28.98;;;;;;;;;;5101108;28;20073;-63
2023/07/21 04:56:56;;;;;;;33.67;27.77;;;;;;;;;;5109477;28;20032;-63
2023/07/21 04:59:21;;;;;;;33.03;29.50;;;;;;;;;;5103552;28;20027;-63
2023/07/21 05:01:47;;;;;;;33.05;29.63;;;;;;;;;;5107991;28;20504;-63
2023/07/21 05:04:12;;;;;;;32.53;29.20;;;;;;;;;;5093811;28;20081;-63
2023/07/21 05:06:37;;;;;;;36.78;31.98;;;;;;;;;;5104091;28;20145;-63
2023/07/21 05:09:03;;;;;;;38.13;33.67;;;;;;;;;;5108876;28;20020;-63
2023/07/21 05:11:28;;;;;;;40.40;32.58;;;;;;;;;;5104892;28;20273;-63
2023/07/21 05:13:53;;;;;;;34.50;30.80;;;;;;;;;;5100030;28;20020;-63
2023/07/21 05:16:19;;;;;;;35.13;31.38;;;;;;;;;;5104730;28;20019;-63
2023/07/21 05:18:44;;;;;;;32.63;29.17;;;;;;;;;;5110954;28;20030;-62
2023/07/21 05:21:09;;;;;;;29.02;26.13;;;;;;;;;;5110408;28;20032;-63
2023/07/21 05:23:34;;;;;;;34.03;30.38;;;;;;;;;;5099307;28;20480;-63
2023/07/21 05:26:00;;;;;;;31.07;27.87;;;;;;;;;;5114029;28;20027;-63
2023/07/21 05:28:29;;;;;;;31.50;28.10;;;;;;;;;;5108593;28;20273;-63
2023/07/21 05:30:55;;;;;;;34.92;31.33;;;;;;;;;;5109645;28;20103;-63
2023/07/21 05:33:20;;;;;;;35.63;31.80;;;;;;;;;;5095661;28;20174;-63
2023/07/21 05:35:45;;;;;;;40.38;35.90;;;;;;;;;;5092900;28;20029;-63
2023/07/21 05:38:10;;;;;;;41.97;37.80;;;;;;;;;;5113370;28;20034;-63
2023/07/21 05:40:36;;;;;;;41.97;37.67;;;;;;;;;;5100950;28;20353;-63
2023/07/21 05:43:02;;;;;;;40.85;36.85;;;;;;;;;;5099100;28;20294;-63
2023/07/21 05:45:28;;;;;;;43.45;38.70;;;;;;;;;;5105403;28;20088;-63
2023/07/21 05:47:53;;;;;;;39.70;35.65;;;;;;;;;;5107422;28;20466;-63
2023/07/21 05:50:18;;;;;;;41.30;36.85;;;;;;;;;;5099884;28;20506;-63
2023/07/21 05:52:44;;;;;;;45.20;40.13;;;;;;;;;;5113437;28;20030;-63
2023/07/21 05:55:10;;;;;;;44.65;39.80;;;;;;;;;;5106000;28;20399;-63
2023/07/21 05:57:35;;;;;;;44.70;39.83;;;;;;;;;;5112753;28;20028;-63
2023/07/21 06:00:01;;;;;;;45.97;38.73;;;;;;;;;;5110910;28;20390;-63
2023/07/21 06:02:26;;;;;;;43.92;39.50;;;;;;;;;;5113364;28;20334;-63
2023/07/21 06:04:51;;;;;;;46.33;41.57;;;;;;;;;;5111611;28;20102;-63
2023/07/21 06:07:17;;;;;;;44.30;39.67;;;;;;;;;;5112845;28;20624;-63
2023/07/21 06:09:42;;;;;;;42.92;37.63;;;;;;;;;;5112701;28;20027;-63
2023/07/21 06:12:07;;;;;;;42.70;38.28;;;;;;;;;;5113337;28;20012;-63
2023/07/21 06:14:33;;;;;;;40.50;36.47;;;;;;;;;;5112393;28;20031;-63
2023/07/21 06:16:59;;;;;;;42.13;36.83;;;;;;;;;;5112516;28;20041;-63
2023/07/21 06:19:24;;;;;;;39.35;35.15;;;;;;;;;;5111490;28;20035;-63
2023/07/21 06:21:50;;;;;;;36.33;32.72;;;;;;;;;;5110877;28;20141;-63
2023/07/21 06:24:16;;;;;;;38.67;34.60;;;;;;;;;;5106127;28;20035;-63
2023/07/21 06:26:41;;;;;;;38.97;35.03;;;;;;;;;;5105780;28;20432;-63
2023/07/21 06:29:07;;;;;;;46.57;39.17;;;;;;;;;;5092942;28;20354;-63
2023/07/21 06:31:33;;;;;;;40.83;36.67;;;;;;;;;;5112467;28;20272;-63
2023/07/21 06:33:58;;;;;;;41.05;36.97;;;;;;;;;;5099989;28;20489;-63
2023/07/21 06:36:25;;;;;;;44.25;38.55;;;;;;;;;;5112159;28;20028;-63
2023/07/21 06:38:50;;;;;;;45.60;40.28;;;;;;;;;;5112509;28;20465;-64
2023/07/21 06:41:15;;;;;;;44.42;38.10;;;;;;;;;;5112534;28;20020;-63
2023/07/21 06:43:41;;;;;;;42.45;37.80;;;;;;;;;;5105548;28;20096;-63
2023/07/21 06:46:06;;;;;;;42.23;38.00;;;;;;;;;;5105761;28;20034;-63
2023/07/21 06:48:32;;;;;;;42.00;37.72;;;;;;;;;;5098231;28;20296;-63
2023/07/21 06:50:57;;;;;;;43.53;38.70;;;;;;;;;;5108352;28;20519;-63
2023/07/21 06:53:22;;;;;;;42.75;38.17;;;;;;;;;;5112573;28;20635;-63
2023/07/21 06:55:51;;;;;;;41.47;37.37;;;;;;;;;;5112006;28;20359;-63
2023/07/21 06:58:17;;;;;;;42.50;38.22;;;;;;;;;;5112320;28;20281;-63
2023/07/21 07:00:42;;;;;;;40.65;36.15;;;;;;;;;;5092092;28;20538;-63
2023/07/21 07:03:07;;;;;;;40.38;36.05;;;;;;;;;;5105745;28;20020;-63
2023/07/21 07:05:32;;;;;;;41.87;37.63;;;;;;;;;;5111793;28;20478;-63
2023/07/21 07:07:58;;;;;;;40.60;36.42;;;;;;;;;;5111855;28;20269;-63
2023/07/21 07:10:23;;;;;;;44.17;39.57;;;;;;;;;;5110950;28;20069;-63
2023/07/21 07:12:48;;;;;;;39.33;35.10;;;;;;;;;;5099142;28;20270;-63
2023/07/21 07:15:13;;;;;;;44.60;38.72;;;;;;;;;;5104834;28;20020;-63
2023/07/21 07:17:39;;;;;;;46.90;35.75;;;;;;;;;;5110978;28;20027;-63
2023/07/21 07:20:04;;;;;;;40.83;36.53;;;;;;;;;;5075307;28;20027;-64
2023/07/21 07:22:29;;;;;;;42.38;37.90;;;;;;;;;;5107039;28;20434;-63
2023/07/21 07:24:55;;;;;;;39.70;35.60;;;;;;;;;;5110645;28;20028;-64
2023/07/21 07:27:20;;;;;;;41.03;36.78;;;;;;;;;;5106204;28;20059;-63
2023/07/21 07:29:46;;;;;;;39.58;35.60;;;;;;;;;;5099108;28;20336;-63
2023/07/21 07:32:12;;;;;;;39.00;34.90;;;;;;;;;;5106245;28;20024;-63
2023/07/21 07:34:37;;;;;;;42.13;37.42;;;;;;;;;;5105744;28;20028;-63
2023/07/21 07:37:03;;;;;;;34.47;31.00;;;;;;;;;;5105168;28;20078;-63
2023/07/21 07:39:30;;;;;;;36.17;32.08;;;;;;;;;;5091881;28;20024;-63
2023/07/21 07:41:55;;;;;;;36.97;31.85;;;;;;;;;;5098864;28;20020;-63
2023/07/21 07:44:20;;;;;;;34.13;27.33;;;;;;;;;;5095719;28;20024;-63
2023/07/21 07:46:45;;;;;;;30.97;27.63;;;;;;;;;;5093082;28;20103;-63
2023/07/21 07:49:11;;;;;;;29.87;26.80;;;;;;;;;;5084841;28;20274;-63
2023/07/21 07:51:38;;;;;;;29.47;26.50;;;;;;;;;;5082526;28;20290;-63
2023/07/21 07:54:05;;;;;;;32.70;29.17;;;;;;;;;;5104485;28;20621;-62
2023/07/21 07:56:30;;;;;;;35.72;31.02;;;;;;;;;;5094269;28;20102;-63
2023/07/21 07:58:57;;;;;;;36.50;32.08;;;;;;;;;;5095803;28;20023;-62
2023/07/21 08:01:22;;;;;;;36.28;32.53;;;;;;;;;;5110385;28;20023;-62
2023/07/21 08:03:47;;;;;;;35.80;32.17;;;;;;;;;;5103615;28;20069;-63
2023/07/21 08:06:13;;;;;;;33.65;30.40;;;;;;;;;;5109789;28;20019;-63
2023/07/21 08:08:38;;;;;;;49.15;31.08;;;;;;;;;;5105287;28;20356;-62
2023/07/21 08:11:04;;;;;;;34.85;31.10;;;;;;;;;;5104704;28;20020;-62
2023/07/21 08:13:30;;;;;;;36.17;32.45;;;;;;;;;;5105919;28;20099;-62
2023/07/21 08:15:55;;;;;;;40.70;36.42;;;;;;;;;;5104643;28;20067;-62
2023/07/21 08:18:20;;;;;;;40.78;36.63;;;;;;;;;;5102158;28;20520;-63
2023/07/21 08:20:45;;;;;;;35.27;31.87;;;;;;;;;;5106289;28;20055;-63
2023/07/21 08:23:11;;;;;;;32.33;28.90;;;;;;;;;;5108074;28;20281;-61
2023/07/21 08:25:36;;;;;;;37.58;32.20;;;;;;;;;;5107525;28;20330;-62
2023/07/21 08:28:03;;;;;;;29.40;26.23;;;;;;;;;;5108397;28;20028;-64
2023/07/21 08:30:29;;;;;;;35.67;31.55;;;;;;;;;;5109279;28;20265;-63
2023/07/21 08:32:56;;;;;;;37.38;33.47;;;;;;;;;;5107857;28;20036;-62
2023/07/21 08:35:24;;;;;;;36.80;32.22;;;;;;;;;;5107214;28;20452;-61
2023/07/21 08:37:49;;;;;;;32.92;29.60;;;;;;;;;;5092608;28;20447;-62
2023/07/21 08:40:16;;;;;;;28.40;25.50;;;;;;;;;;5097386;28;20049;-62
2023/07/21 08:42:41;;;;;;;22.33;18.88;;;;;;;;;;5105901;28;20281;-62
2023/07/21 08:45:07;;;;;;;18.98;16.75;;;;;;;;;;5112687;28;20030;-64
2023/07/21 08:47:33;;;;;;;21.67;19.55;;;;;;;;;;5113206;28;20034;-63
2023/07/21 08:49:59;;;;;;;22.50;20.02;;;;;;;;;;5098180;28;20020;-63
2023/07/21 08:52:25;;;;;;;15.23;13.35;;;;;;;;;;5105329;28;20532;-62
2023/07/21 08:54:50;;;;;;;14.70;12.93;;;;;;;;;;5096689;28;20073;-62
2023/07/21 08:57:15;;;;;;;17.33;15.50;;;;;;;;;;5095207;28;20016;-62
2023/07/21 08:59:41;;;;;;;14.07;12.48;;;;;;;;;;5094811;28;20080;-63
2023/07/21 09:02:07;;;;;;;11.20;10.02;;;;;;;;;;5083983;28;20036;-62
2023/07/21 09:04:32;;;;;;;13.27;11.70;;;;;;;;;;5109735;28;20027;-63
2023/07/21 09:06:58;;;;;;;11.45;10.20;;;;;;;;;;5100539;28;20019;-62
2023/07/21 09:09:25;;;;;;;10.70;8.98;;;;;;;;;;5104267;28;20081;-62
2023/07/21 09:11:58;;;;;;;11.23;8.57;;;;;;;;;;5105851;28;20016;-63
2023/07/21 09:14:33;;;;;;;7.72;6.15;;;;;;;;;;5102266;28;20031;-64
2023/07/21 09:16:59;;;;;;;5.97;4.95;;;;;;;;;;5102913;28;20023;-63
2023/07/21 09:19:24;;;;;;;7.65;4.95;;;;;;;;;;5100547;28;20031;-63
2023/07/21 09:21:56;;;;;;;9.50;5.93;;;;;;;;;;5111758;28;20024;-61
2023/07/21 09:24:21;;;;;;;7.53;5.45;;;;;;;;;;5097551;28;20032;-61
2023/07/21 09:26:47;;;;;;;8.70;6.70;;;;;;;;;;5108002;28;20016;-63
2023/07/21 09:29:17;;;;;;;9.03;7.00;;;;;;;;;;5100652;28;20023;-64
2023/07/21 09:31:44;;;;;;;6.93;6.13;;;;;;;;;;5103519;28;20327;-63
2023/07/21 09:34:09;;;;;;;8.45;7.40;;;;;;;;;;5102428;28;20497;-63
2023/07/21 09:36:35;;;;;;;9.25;7.43;;;;;;;;;;5107526;28;20044;-63
2023/07/21 09:39:02;;;;;;;10.63;7.55;;;;;;;;;;5105149;28;20069;-63
2023/07/21 09:41:29;;;;;;;9.95;7.13;;;;;;;;;;5110962;28;20024;-63
2023/07/21 09:43:55;;;;;;;8.57;6.70;;;;;;;;;;5109355;28;20115;-63
2023/07/21 09:46:21;;;;;;;11.02;8.95;;;;;;;;;;5104106;28;20020;-61
2023/07/21 09:48:47;;;;;;;15.00;9.38;;;;;;;;;;5107356;28;20069;-63
2023/07/21 09:51:12;;;;;;;9.75;8.68;;;;;;;;;;5105375;28;20043;-63
2023/07/21 09:53:39;;;;;;;13.85;8.10;;;;;;;;;;5109193;28;20493;-63
2023/07/21 09:56:05;;;;;;;11.63;7.43;;;;;;;;;;5112913;28;20077;-65
2023/07/21 09:58:31;;;;;;;9.18;7.63;;;;;;;;;;5109457;28;20028;-64
2023/07/21 10:01:00;;;;;;;7.95;6.82;;;;;;;;;;5112987;28;20027;-64
2023/07/21 10:03:29;;;;;;;7.63;6.20;;;;;;;;;;5098550;28;20024;-62
2023/07/21 10:05:56;;;;;;;7.78;6.97;;;;;;;;;;5104507;28;20036;-62
2023/07/21 10:08:24;;;;;;;8.50;7.05;;;;;;;;;;5110027;28;20094;-61
2023/07/21 10:10:50;;;;;;;7.57;6.68;;;;;;;;;;5107037;28;20016;-63
2023/07/21 10:13:16;;;;;;;11.50;7.10;;;;;;;;;;5106040;28;20040;-64
2023/07/21 10:15:45;;;;;;;9.43;6.65;;;;;;;;;;5106527;28;20020;-63
2023/07/21 10:18:11;;;;;;;8.65;7.07;;;;;;;;;;5106026;28;20055;-63
2023/07/21 10:20:37;;;;;;;6.90;4.97;;;;;;;;;;5107289;28;20120;-63
2023/07/21 10:23:02;;;;;;;11.80;6.65;;;;;;;;;;5105105;28;20484;-64
2023/07/21 10:25:27;;;;;;;8.23;7.10;;;;;;;;;;5108529;28;20032;-64
2023/07/21 10:28:03;;;;;;;8.07;5.00;;;;;;;;;;5105421;28;20272;-64
2023/07/21 10:30:28;;;;;;;7.68;5.30;;;;;;;;;;5109236;28;20099;-63
2023/07/21 10:32:53;;;;;;;5.82;4.70;;;;;;;;;;5107350;28;20059;-63
2023/07/21 10:35:37;;;;;;;8.83;6.30;;;;;;;;;;5105865;28;20298;-64
2023/07/21 10:38:22;;;;;;;10.43;7.53;;;;;;;;;;5101997;28;20363;-64
2023/07/21 10:40:47;;;;;;;7.30;5.50;;;;;;;;;;5109130;28;20505;-63
2023/07/21 10:43:13;;;;;;;7.97;5.93;;;;;;;;;;5094669;28;20035;-64
2023/07/21 10:45:38;;;;;;;7.07;5.47;;;;;;;;;;5112591;28;20132;-64
2023/07/21 10:48:11;;;;;;;9.18;6.03;;;;;;;;;;5111463;28;20455;-64
2023/07/21 10:50:38;;;;;;;9.27;5.25;;;;;;;;;;5108133;28;20370;-64
2023/07/21 10:53:05;;;;;;;7.03;4.03;;;;;;;;;;5105264;28;20065;-64
2023/07/21 10:55:30;;;;;;;8.18;4.55;;;;;;;;;;5093912;28;20028;-64
2023/07/21 10:57:56;;;;;;;7.07;5.03;;;;;;;;;;5092730;28;20085;-64
2023/07/21 11:00:21;;;;;;;5.90;4.68;;;;;;;;;;5092680;28;20439;-64
2023/07/21 11:02:52;;;;;;;9.93;5.03;;;;;;;;;;5091576;28;20028;-64
2023/07/21 11:05:17;;;;;;;6.55;4.82;;;;;;;;;;5092119;28;20046;-65
2023/07/21 11:07:43;;;;;;;4.63;3.58;;;;;;;;;;5092337;28;20024;-71
2023/07/21 11:10:08;;;;;;;7.10;4.53;;;;;;;;;;5079400;28;20081;-64
2023/07/21 11:12:33;;;;;;;5.82;4.68;;;;;;;;;;5100469;28;20302;-64
2023/07/21 11:14:58;;;;;;;8.30;5.72;;;;;;;;;;5097756;28;20378;-64
2023/07/21 11:17:24;;;;;;;6.05;4.53;;;;;;;;;;5096720;28;20072;-65
2023/07/21 11:19:49;;;;;;;7.68;4.88;;;;;;;;;;5093543;28;20063;-65
2023/07/21 11:22:14;;;;;;;6.33;3.67;;;;;;;;;;5094544;28;20467;-65
2023/07/21 11:24:39;;;;;;;8.23;4.47;;;;;;;;;;5102784;28;20672;-65
2023/07/21 11:27:05;;;;;;;8.93;5.30;;;;;;;;;;5095242;28;20343;-64
2023/07/21 11:29:31;;;;;;;5.78;4.57;;;;;;;;;;5107270;28;20335;-64
2023/07/21 11:31:57;;;;;;;7.63;4.28;;;;;;;;;;5100486;28;20477;-64
2023/07/21 11:34:23;;;;;;;6.60;4.55;;;;;;;;;;5108369;28;20466;-64
2023/07/21 11:36:53;;;;;;;4.20;3.20;;;;;;;;;;5109939;28;20034;-63
2023/07/21 11:39:20;;;;;;;6.65;3.33;;;;;;;;;;5106163;28;20024;-65
2023/07/21 11:41:53;;;;;;;7.18;3.35;;;;;;;;;;5063835;28;20866;-62
2023/07/21 11:44:22;;;;;;;6.95;3.85;;;;;;;;;;5053858;28;20889;-63
2023/07/21 11:46:55;;;;;;;14.68;5.75;;;;;;;;;;5078543;28;20114;-64
2023/07/21 11:49:22;;;;;;;8.38;4.88;;;;;;;;;;5101043;28;20016;-64
2023/07/21 11:51:49;;;;;;;13.35;5.72;;;;;;;;;;5108288;28;20561;-62
2023/07/21 11:54:17;;;;;;;8.02;5.75;;;;;;;;;;5100453;28;20097;-62
2023/07/21 11:56:43;;;;;;;12.35;8.15;;;;;;;;;;5104629;28;20098;-62
2023/07/21 11:59:08;;;;;;;10.30;6.73;;;;;;;;;;5105773;28;20098;-63
2023/07/21 12:01:35;;;;;;;9.43;7.57;;;;;;;;;;5105949;28;20281;-61
2023/07/21 12:04:00;;;;;;;10.85;8.27;;;;;;;;;;5101213;28;20305;-62
2023/07/21 12:06:25;;;;;;;11.95;9.35;;;;;;;;;;5097786;28;20027;-61
2023/07/21 12:08:53;;;;;;;14.43;9.55;;;;;;;;;;5109099;28;20020;-62
2023/07/21 12:11:19;;;;;;;10.60;8.43;;;;;;;;;;5103957;28;20024;-62
2023/07/21 12:13:44;;;;;;;9.70;8.73;;;;;;;;;;5098082;28;20032;-62
2023/07/21 12:16:11;;;;;;;9.30;8.10;;;;;;;;;;5109822;28;20027;-62
2023/07/21 12:18:38;;;;;;;13.25;10.13;;;;;;;;;;5108795;28;20257;-61
2023/07/21 12:21:03;;;;;;;12.18;10.88;;;;;;;;;;5102075;28;20119;-61
2023/07/21 12:23:28;;;;;;;9.25;7.68;;;;;;;;;;5096226;28;20119;-63
2023/07/21 12:25:54;;;;;;;9.38;8.35;;;;;;;;;;5106825;28;20034;-61
2023/07/21 12:28:20;;;;;;;14.93;9.17;;;;;;;;;;5097138;28;20024;-62
2023/07/21 12:30:45;;;;;;;11.18;9.90;;;;;;;;;;5099216;28;20406;-61
2023/07/21 12:33:11;;;;;;;11.50;10.23;;;;;;;;;;5098258;28;20470;-62
2023/07/21 12:35:36;;;;;;;12.60;10.40;;;;;;;;;;5110359;28;20024;-61
2023/07/21 12:38:01;;;;;;;14.05;12.40;;;;;;;;;;5107969;28;20030;-61
2023/07/21 12:40:26;;;;;;;14.98;13.48;;;;;;;;;;5113973;28;20229;-61
2023/07/21 12:42:52;;;;;;;13.75;12.35;;;;;;;;;;5097566;28;20035;-62
2023/07/21 12:45:17;;;;;;;17.13;14.35;;;;;;;;;;5107407;28;20387;-60
2023/07/21 12:47:42;;;;;;;15.98;13.85;;;;;;;;;;5107541;28;20035;-61
2023/07/21 12:50:07;;;;;;;16.90;15.20;;;;;;;;;;5093791;28;20032;-60
2023/07/21 12:52:33;;;;;;;19.08;17.27;;;;;;;;;;5111131;28;20470;-60
2023/07/21 12:54:58;;;;;;;18.80;16.70;;;;;;;;;;5113838;28;20023;-60
2023/07/21 12:57:23;;;;;;;17.30;15.50;;;;;;;;;;5110256;28;20046;-60
2023/07/21 12:59:49;;;;;;;16.77;14.77;;;;;;;;;;5112652;28;20028;-59
2023/07/21 13:02:14;;;;;;;14.80;13.40;;;;;;;;;;5112421;28;20085;-58
2023/07/21 13:04:39;;;;;;;17.13;15.37;;;;;;;;;;5112100;28;20110;-59
2023/07/21 13:07:09;;;;;;;15.77;14.25;;;;;;;;;;5110054;28;20266;-59
2023/07/21 13:09:34;;;;;;;14.43;13.13;;;;;;;;;;5112261;28;20023;-59
2023/07/21 13:12:00;;;;;;;18.65;13.55;;;;;;;;;;5110885;28;20027;-59
2023/07/21 13:14:25;;;;;;;16.53;13.27;;;;;;;;;;5112710;28;20027;-61
2023/07/21 13:16:50;;;;;;;16.52;12.98;;;;;;;;;;5107525;28;20379;-61
2023/07/21 13:19:15;;;;;;;11.82;10.32;;;;;;;;;;5105830;28;20016;-60
2023/07/21 13:21:40;;;;;;;9.77;8.77;;;;;;;;;;5100459;28;20027;-60
2023/07/21 13:24:06;;;;;;;10.33;9.10;;;;;;;;;;5108582;28;20027;-60
2023/07/21 13:26:33;;;;;;;14.97;8.07;;;;;;;;;;5096184;28;20744;-60
2023/07/21 13:28:58;;;;;;;9.50;8.18;;;;;;;;;;5099985;28;20276;-60
2023/07/21 13:31:25;;;;;;;10.32;9.30;;;;;;;;;;5104433;28;20024;-60
2023/07/21 13:33:51;;;;;;;10.77;9.32;;;;;;;;;;5101852;28;20027;-60
2023/07/21 13:36:16;;;;;;;12.68;9.07;;;;;;;;;;5096225;28;20031;-60
2023/07/21 13:38:42;;;;;;;10.57;9.35;;;;;;;;;;5098664;28;20030;-60
2023/07/21 13:41:09;;;;;;;11.45;9.77;;;;;;;;;;5098628;28;20440;-60
2023/07/21 13:43:34;;;;;;;14.20;10.73;;;;;;;;;;5092423;28;20036;-60
2023/07/21 13:46:00;;;;;;;13.57;11.95;;;;;;;;;;5093915;28;20050;-60
2023/07/21 13:48:25;;;;;;;11.82;9.27;;;;;;;;;;5099324;28;20020;-61
2023/07/21 13:50:51;;;;;;;11.73;9.25;;;;;;;;;;5094556;28;20093;-61
2023/07/21 13:53:16;;;;;;;10.80;9.65;;;;;;;;;;5093639;28;20371;-61
2023/07/21 13:55:41;;;;;;;11.38;10.20;;;;;;;;;;5106134;28;20103;-60
2023/07/21 13:58:06;;;;;;;10.80;9.55;;;;;;;;;;5092737;28;20437;-61
2023/07/21 14:00:32;;;;;;;12.52;10.50;;;;;;;;;;5093634;28;20035;-61
2023/07/21 14:02:57;;;;;;;12.18;9.68;;;;;;;;;;5104532;28;20457;-61
2023/07/21 14:05:24;;;;;;;11.15;9.88;;;;;;;;;;5095927;28;20036;-62
2023/07/21 14:07:49;;;;;;;13.73;12.05;;;;;;;;;;5102983;28;20031;-60
2023/07/21 14:10:15;;;;;;;14.18;11.05;;;;;;;;;;5107459;28;20481;-59
2023/07/21 14:12:40;;;;;;;11.13;9.98;;;;;;;;;;5111612;28;20068;-63
2023/07/21 14:15:08;;;;;;;16.42;10.38;;;;;;;;;;5108596;28;20020;-61
2023/07/21 14:17:33;;;;;;;12.55;10.45;;;;;;;;;;5105069;28;20024;-61